Terminal Aerodrome Forecast
Issued by NWS

Home | Current Version | Previous Version | Text Only | Print | Product List | Glossary On
Versions: 1 2 3 4 5 6 7 8 9 10 11 12 13 14 15 16 17 18 19 20 21 22 23 24 25 26 27 28 29 30 31 32 33 34 35 36
819
FTUS45 KGJT 201740
TAFEGE
TAF
KEGE 201740Z 2018/2118 22004KT 6SM -SN BR OVC025
      TEMPO 2018/2021 3SM -SN BR BKN003 OVC020
     FM202100 23010KT 6SM BR VCSH OVC035
     FM210600 10004KT P6SM BKN045
     FM211000 13004KT P6SM BKN070
     FM211700 VRB03KT P6SM BKN030=

USA.gov is the U.S. government's official web portal to all federal, state and local government web resources and services.